Albion, Ohio
Current Conditions -  °F | °C
As of 4:56 AM on Monday 22 Dec 2014 (Local Time) from KBJJ Reporting Station
Haze Haze  
Wind Chill: 22°   Ceiling: Unl
Heat Index: 22°   Visibility: 5mi
Dew Point: 19°   Wind: 0mph
Humidity: 89%   Direction: NA
Pressure: 30.1"   Gusts: NA
Location:  40.9441°N, 82.1006°W
Report Text: KBJJ 220956Z AUTO 00000KT 5SM BR CLR M06/M07 A3010 RMK AO2 SLP208 T10561072 TSNO
Loading
Personal Weather Stations






























Interactive Weather Map New forecast layout! Learn more

10-Day Weather Forecast

Advertisements
Track Severe Weather on mobile